Time;durP1;ratioP1;P1;durP2;ratioP2;P2;SDS_P1;SDS_P2;PMS_P1;PMS_P2;Temp;Humidity;BMP_temperature;BMP_pressure;BME280_temperature;BME280_humidity;BME280_pressure;Samples;Min_cycle;Max_cycle;Signal;HPM_P1;HPM_P2
2023/03/12 00:01:19;;;;;;;0.00;0.00;;;;;;;7.75;100.00;99480.31;6198692;23;20008;-77
2023/03/12 00:03:48;;;;;;;0.00;0.00;;;;;;;7.76;100.00;99470.25;6225922;22;20007;-78
2023/03/12 00:06:15;;;;;;;0.00;0.00;;;;;;;7.93;100.00;99503.50;6210943;23;20008;-77
2023/03/12 00:08:41;;;;;;;0.00;0.00;;;;;;;7.91;100.00;99499.41;6213496;23;20039;-77
2023/03/12 00:11:12;;;;;;;0.00;0.00;;;;;;;7.91;100.00;99491.22;6211906;23;20046;-78
2023/03/12 00:13:41;;;;;;;0.00;0.00;;;;;;;7.94;100.00;99496.13;6214622;23;20368;-82
2023/03/12 00:16:13;;;;;;;0.00;0.00;;;;;;;8.01;100.00;99502.94;6241662;23;20126;-78
2023/03/12 00:18:39;;;;;;;0.00;0.00;;;;;;;8.00;100.00;99492.31;6211912;23;20000;-78
2023/03/12 00:21:05;;;;;;;0.00;0.00;;;;;;;8.00;100.00;99495.03;6215774;23;20004;-77
2023/03/12 00:23:31;;;;;;;0.10;0.10;;;;;;;7.99;100.00;99493.41;6208500;23;20000;-78
2023/03/12 00:26:08;;;;;;;0.00;0.00;;;;;;;8.05;100.00;99495.06;6213264;23;20038;-78
2023/03/12 00:28:33;;;;;;;0.00;0.00;;;;;;;8.01;100.00;99491.22;6236426;23;20000;-78
2023/03/12 00:30:59;;;;;;;0.00;0.00;;;;;;;8.09;100.00;99507.03;6213332;23;20450;-78
2023/03/12 00:33:27;;;;;;;0.00;0.00;;;;;;;7.96;100.00;99485.81;6213011;23;20124;-78
2023/03/12 00:35:55;;;;;;;0.00;0.00;;;;;;;8.06;100.00;99496.69;6211476;23;20011;-78
2023/03/12 00:38:21;;;;;;;0.00;0.00;;;;;;;8.12;100.00;99501.03;6240415;23;20004;-78
2023/03/12 00:40:47;;;;;;;0.00;0.00;;;;;;;8.04;100.00;99493.41;6209628;23;20016;-78
2023/03/12 00:43:22;;;;;;;0.00;0.00;;;;;;;8.07;100.00;99505.66;6213706;23;20595;-77
2023/03/12 00:45:49;;;;;;;0.00;0.00;;;;;;;8.07;100.00;99503.75;6186895;23;20085;-77
2023/03/12 00:48:15;;;;;;;0.00;0.00;;;;;;;8.19;100.00;99512.50;6188920;23;20086;-77
2023/03/12 00:50:43;;;;;;;0.00;0.00;;;;;;;8.08;100.00;99488.25;6209259;23;20103;-76
2023/03/12 00:53:11;;;;;;;0.00;0.00;;;;;;;8.14;100.00;99501.56;6241183;23;20055;-78
2023/03/12 00:55:36;;;;;;;0.00;0.00;;;;;;;8.13;100.00;99491.78;6186696;23;20019;-78
2023/03/12 00:58:02;;;;;;;0.00;0.00;;;;;;;8.13;100.00;99494.53;6211577;23;20012;-79
2023/03/12 01:00:27;;;;;;;0.00;0.00;;;;;;;8.18;100.00;99505.41;6215161;23;20016;-78
2023/03/12 01:02:53;;;;;;;0.00;0.00;;;;;;;8.15;100.00;99500.50;6185480;23;20012;-78
2023/03/12 01:05:19;;;;;;;0.00;0.00;;;;;;;8.19;100.00;99493.41;6239081;22;20674;-77
2023/03/12 01:07:44;;;;;;;0.00;0.00;;;;;;;8.26;100.00;99509.47;6210904;23;20004;-77
2023/03/12 01:10:13;;;;;;;0.00;0.00;;;;;;;8.28;100.00;99498.31;6187888;23;20004;-77
2023/03/12 01:12:39;;;;;;;0.00;0.00;;;;;;;8.28;100.00;99503.75;6210892;23;20419;-77
2023/03/12 01:15:06;;;;;;;0.00;0.00;;;;;;;8.18;100.00;99483.59;6186029;23;20010;-78
2023/03/12 01:17:39;;;;;;;0.00;0.00;;;;;;;8.20;100.00;99491.50;6188812;23;20385;-79
2023/03/12 01:20:05;;;;;;;0.00;0.00;;;;;;;8.18;100.00;99489.06;6209077;23;20007;-78
2023/03/12 01:22:34;;;;;;;0.00;0.00;;;;;;;8.30;100.00;99507.03;6188049;23;20066;-78
2023/03/12 01:25:07;;;;;;;0.00;0.00;;;;;;;8.24;100.00;99503.50;6212997;23;20002;-79
2023/03/12 01:27:33;;;;;;;0.00;0.00;;;;;;;8.19;100.00;99482.53;6188992;23;20010;-78
2023/03/12 01:29:58;;;;;;;0.00;0.00;;;;;;;8.29;100.00;99510.84;6188183;23;20175;-78
2023/03/12 01:32:26;;;;;;;0.00;0.00;;;;;;;8.31;100.00;99511.38;6208762;23;20008;-77
2023/03/12 01:34:52;;;;;;;0.00;0.00;;;;;;;8.29;100.00;99505.38;6188643;23;20027;-78
2023/03/12 01:37:17;;;;;;;0.00;0.00;;;;;;;8.29;100.00;99503.47;6209752;23;20004;-77
2023/03/12 01:39:50;;;;;;;0.00;0.00;;;;;;;8.27;100.00;99507.59;6213095;23;20008;-78
2023/03/12 01:42:23;;;;;;;0.00;0.00;;;;;;;8.18;100.00;99504.59;6209298;23;20000;-78
2023/03/12 01:45:00;;;;;;;0.00;0.00;;;;;;;8.29;100.00;99532.63;6191566;23;20012;-79
2023/03/12 01:47:30;;;;;;;0.00;0.00;;;;;;;8.12;100.00;99511.09;6209437;23;20867;-78
2023/03/12 01:49:56;;;;;;;0.00;0.00;;;;;;;7.92;100.00;99501.03;6213693;23;20024;-79
2023/03/12 01:52:29;;;;;;;0.00;0.00;;;;;;;7.93;100.00;99510.81;6208876;23;19996;-78
2023/03/12 01:55:09;;;;;;;0.00;0.00;;;;;;;7.93;100.00;99524.44;6213307;23;20028;-79
2023/03/12 01:57:40;;;;;;;0.00;0.00;;;;;;;7.85;100.00;99495.84;6210734;23;20577;-78
2023/03/12 02:00:17;;;;;;;0.00;0.00;;;;;;;7.94;100.00;99504.28;6214280;23;20009;-77
2023/03/12 02:02:43;;;;;;;0.00;0.00;;;;;;;8.03;100.00;99517.09;6209716;23;20008;-76
2023/03/12 02:05:12;;;;;;;0.00;0.00;;;;;;;8.08;100.00;99520.94;6239281;22;20123;-78
2023/03/12 02:07:37;;;;;;;0.00;0.00;;;;;;;8.02;100.00;99512.75;6206387;23;20004;-77
2023/03/12 02:10:19;;;;;;;0.00;0.00;;;;;;;8.08;100.00;99521.72;6188345;23;20000;-76
2023/03/12 02:12:45;;;;;;;0.00;0.00;;;;;;;8.03;100.00;99502.66;6208492;23;20334;-78
2023/03/12 02:15:11;;;;;;;0.00;0.00;;;;;;;8.20;100.00;99533.16;6212336;23;20039;-77
2023/03/12 02:17:39;;;;;;;0.00;0.00;;;;;;;8.25;100.00;99532.38;6240196;23;20011;-76
2023/03/12 02:20:40;;;;;;;0.00;0.00;;;;;;;8.28;100.00;99531.00;6183512;23;20008;-76
2023/03/12 02:23:12;;;;;;;0.00;0.00;;;;;;;8.22;100.00;99516.56;6207903;23;20435;-77
2023/03/12 02:25:45;;;;;;;0.00;0.00;;;;;;;8.21;100.00;99526.63;6213150;23;20016;-77
2023/03/12 02:28:17;;;;;;;0.00;0.00;;;;;;;8.25;100.00;99526.09;6215915;23;20839;-76
2023/03/12 02:30:47;;;;;;;0.00;0.00;;;;;;;8.21;100.00;99526.63;6210416;23;20050;-78
2023/03/12 02:33:15;;;;;;;0.00;0.00;;;;;;;8.17;100.00;99502.94;6214660;23;20008;-77
2023/03/12 02:35:41;;;;;;;0.00;0.00;;;;;;;8.19;100.00;99507.03;6212190;23;20015;-78
2023/03/12 02:38:43;;;;;;;0.00;0.00;;;;;;;8.34;100.00;99519.03;6242432;23;20018;-78
2023/03/12 02:41:28;;;;;;;0.00;0.00;;;;;;;8.38;100.00;99509.19;6215250;23;20008;-79
2023/03/12 02:44:02;;;;;;;0.00;0.00;;;;;;;8.34;100.00;99508.13;6211352;23;20003;-79
2023/03/12 02:46:42;;;;;;;0.00;0.00;;;;;;;8.35;100.00;99509.75;6215726;23;20032;-78
2023/03/12 02:49:10;;;;;;;0.00;0.00;;;;;;;8.30;100.00;99515.22;6237443;23;19996;-78
2023/03/12 02:51:36;;;;;;;0.00;0.00;;;;;;;8.27;100.00;99518.47;6214807;23;20011;-79
2023/03/12 02:54:01;;;;;;;0.00;0.00;;;;;;;8.18;100.00;99519.00;6212184;23;20004;-78
2023/03/12 02:56:31;;;;;;;0.00;0.00;;;;;;;8.25;100.00;99526.09;6190255;23;20004;-79
2023/03/12 02:58:59;;;;;;;0.00;0.00;;;;;;;8.24;100.00;99535.38;6241609;23;20334;-79
2023/03/12 03:01:25;;;;;;;0.00;0.00;;;;;;;8.21;100.00;99537.53;6186176;23;20008;-79
2023/03/12 03:03:51;;;;;;;0.00;0.00;;;;;;;8.26;100.00;99544.88;6215494;22;20342;-79
2023/03/12 03:06:19;;;;;;;0.00;0.00;;;;;;;8.27;100.00;99551.16;6236261;23;20008;-78
2023/03/12 03:08:47;;;;;;;0.00;0.00;;;;;;;8.34;100.00;99562.59;6213416;23;20408;-79
2023/03/12 03:11:12;;;;;;;0.00;0.00;;;;;;;8.37;100.00;99572.97;6186607;23;20015;-79
2023/03/12 03:13:45;;;;;;;0.00;0.00;;;;;;;8.35;100.00;99577.84;6214167;23;20004;-78
2023/03/12 03:16:12;;;;;;;0.00;0.00;;;;;;;8.36;100.00;99590.38;6236885;23;20008;-79
2023/03/12 03:18:37;;;;;;;0.00;0.00;;;;;;;8.38;100.00;99589.03;6214069;23;20014;-79
2023/03/12 03:21:09;;;;;;;0.00;0.00;;;;;;;8.39;100.00;99587.13;6212234;23;20000;-78
2023/03/12 03:23:37;;;;;;;0.00;0.00;;;;;;;8.38;100.00;99580.03;6214604;23;20023;-79
2023/03/12 03:26:02;;;;;;;0.00;0.00;;;;;;;8.47;100.00;99589.34;6214876;23;20008;-78
2023/03/12 03:28:29;;;;;;;0.00;0.00;;;;;;;8.35;100.00;99570.50;6212038;23;20065;-79
2023/03/12 03:31:00;;;;;;;0.00;0.00;;;;;;;8.37;100.00;99572.97;6187805;23;20086;-78
2023/03/12 03:33:25;;;;;;;0.00;0.00;;;;;;;8.26;100.00;99576.75;6214614;23;20065;-78
2023/03/12 03:35:51;;;;;;;0.00;0.00;;;;;;;8.33;100.00;99582.75;6186408;23;20004;-78
2023/03/12 03:38:16;;;;;;;0.00;0.00;;;;;;;8.07;100.00;99563.66;6212438;23;20019;-79
2023/03/12 03:40:42;;;;;;;0.00;0.00;;;;;;;7.96;100.00;99578.38;6211103;23;20453;-77
2023/03/12 03:43:08;;;;;;;0.00;0.00;;;;;;;7.82;100.00;99589.75;6189535;23;20418;-78
2023/03/12 03:45:38;;;;;;;0.00;0.00;;;;;;;7.73;100.00;99582.38;6237329;23;20411;-78
2023/03/12 03:48:11;;;;;;;0.00;0.00;;;;;;;7.58;100.00;99564.09;6190112;23;20035;-79
2023/03/12 03:50:40;;;;;;;0.00;0.00;;;;;;;7.51;100.00;99586.13;6209932;23;19996;-76
2023/03/12 03:53:08;;;;;;;0.00;0.00;;;;;;;7.35;100.00;99577.06;6211203;23;20079;-77
2023/03/12 03:55:38;;;;;;;0.00;0.00;;;;;;;7.23;100.00;99584.63;6212702;23;19996;-78
2023/03/12 03:58:06;;;;;;;0.00;0.00;;;;;;;7.05;100.00;99575.81;6186994;23;20008;-78
2023/03/12 04:00:33;;;;;;;0.00;0.00;;;;;;;7.03;100.00;99586.16;6189233;23;20726;-78
2023/03/12 04:02:59;;;;;;;0.00;0.00;;;;;;;6.94;100.00;99579.59;6182867;23;20016;-77
2023/03/12 04:05:24;;;;;;;0.00;0.00;;;;;;;6.91;100.00;99593.69;6213616;23;20038;-78
2023/03/12 04:07:53;;;;;;;0.00;0.00;;;;;;;6.79;100.00;99589.28;6233771;23;20803;-77
2023/03/12 04:10:26;;;;;;;0.00;0.00;;;;;;;6.75;100.00;99590.88;6214380;23;20000;-76
2023/03/12 04:12:53;;;;;;;0.00;0.00;;;;;;;6.80;100.00;99607.22;6182969;23;20034;-77
2023/03/12 04:15:21;;;;;;;0.00;0.00;;;;;;;6.82;100.00;99613.19;6188383;23;20088;-78
2023/03/12 04:17:49;;;;;;;0.00;0.00;;;;;;;6.97;100.00;99633.41;6210249;23;20422;-78
2023/03/12 04:20:14;;;;;;;0.00;0.00;;;;;;;7.06;100.00;99625.59;6213556;23;20095;-78
2023/03/12 04:22:43;;;;;;;0.00;0.00;;;;;;;7.21;100.00;99633.03;6162610;23;20446;-78
2023/03/12 04:25:11;;;;;;;0.00;0.00;;;;;;;7.23;100.00;99641.72;6213875;23;20008;-78
2023/03/12 04:27:39;;;;;;;0.00;0.00;;;;;;;7.23;100.00;99641.72;6211741;23;20015;-78
2023/03/12 04:30:07;;;;;;;0.00;0.00;;;;;;;7.39;100.00;99662.50;6214741;23;20031;-77
2023/03/12 04:32:33;;;;;;;0.00;0.00;;;;;;;7.35;100.00;99655.94;6213341;23;20084;-77
2023/03/12 04:34:58;;;;;;;0.00;0.00;;;;;;;7.37;100.00;99644.81;6213352;23;20040;-77
2023/03/12 04:37:24;;;;;;;0.00;0.00;;;;;;;7.48;100.00;99644.59;6186105;23;20455;-78
2023/03/12 04:39:49;;;;;;;0.00;0.00;;;;;;;7.48;100.00;99643.78;6189304;23;20008;-77
2023/03/12 04:42:22;;;;;;;0.00;0.00;;;;;;;7.47;100.00;99642.13;6210109;23;20008;-76
2023/03/12 04:44:51;;;;;;;0.00;0.00;;;;;;;7.49;100.00;99645.41;6214573;23;20000;-78
2023/03/12 04:47:16;;;;;;;0.00;0.00;;;;;;;7.48;100.00;99649.22;6238790;23;20028;-77
2023/03/12 04:49:43;;;;;;;0.00;0.00;;;;;;;7.37;100.00;99626.56;6214464;23;19996;-78
2023/03/12 04:52:08;;;;;;;0.05;0.05;;;;;;;7.39;100.00;99646.19;6214381;23;20000;-77
2023/03/12 04:54:34;;;;;;;0.00;0.00;;;;;;;7.08;100.00;99635.13;6186210;23;20035;-78
2023/03/12 04:57:02;;;;;;;0.00;0.00;;;;;;;6.78;100.00;99614.81;6241640;23;20006;-77
2023/03/12 04:59:27;;;;;;;0.00;0.00;;;;;;;6.64;100.00;99624.47;6210849;23;20567;-78
2023/03/12 05:01:52;;;;;;;0.00;0.00;;;;;;;6.69;100.00;99659.84;6214532;23;20008;-78
2023/03/12 05:04:18;;;;;;;0.00;0.00;;;;;;;6.50;100.00;99650.41;6211316;22;20030;-77
2023/03/12 05:06:43;;;;;;;0.00;0.00;;;;;;;6.42;100.00;99640.84;6189086;23;20014;-77
2023/03/12 05:09:09;;;;;;;0.00;0.00;;;;;;;6.38;100.00;99643.28;6212852;23;20004;-78
2023/03/12 05:11:37;;;;;;;0.00;0.00;;;;;;;6.55;100.00;99664.06;6210354;23;20315;-78
2023/03/12 05:14:02;;;;;;;0.00;0.00;;;;;;;6.49;100.00;99637.94;6214112;23;20011;-77
2023/03/12 05:16:28;;;;;;;0.00;0.00;;;;;;;6.50;100.00;99629.53;6236916;23;20011;-78
2023/03/12 05:18:54;;;;;;;0.00;0.00;;;;;;;6.39;100.00;99609.59;6241173;23;20008;-77
2023/03/12 05:21:20;;;;;;;0.00;0.00;;;;;;;6.45;100.00;99630.31;6212813;23;20008;-79
2023/03/12 05:23:46;;;;;;;0.00;0.00;;;;;;;6.40;100.00;99622.09;6213036;23;19996;-78
2023/03/12 05:26:26;;;;;;;0.00;0.00;;;;;;;6.40;100.00;99607.72;6213509;23;20004;-78
2023/03/12 05:28:54;;;;;;;0.00;0.00;;;;;;;6.30;100.00;99605.72;6214009;23;19999;-76
2023/03/12 05:31:19;;;;;;;0.00;0.00;;;;;;;6.33;100.00;99618.78;6212010;23;20007;-77
2023/03/12 05:33:46;;;;;;;0.00;0.00;;;;;;;6.38;100.00;99626.97;6186399;23;20012;-76
2023/03/12 05:36:12;;;;;;;0.00;0.00;;;;;;;6.41;100.00;99637.31;6240820;23;19996;-77
2023/03/12 05:38:40;;;;;;;0.00;0.00;;;;;;;6.43;100.00;99647.94;6209779;23;19992;-77
2023/03/12 05:41:06;;;;;;;0.00;0.00;;;;;;;6.36;100.00;99634.56;6213648;23;20019;-77
2023/03/12 05:43:34;;;;;;;0.00;0.00;;;;;;;6.36;100.00;99633.75;6210620;23;19996;-76
2023/03/12 05:46:02;;;;;;;0.00;0.00;;;;;;;6.60;100.00;99650.50;6241024;23;20004;-77
2023/03/12 05:48:30;;;;;;;0.00;0.00;;;;;;;6.54;100.00;99646.13;6211454;23;20004;-77
2023/03/12 05:50:56;;;;;;;0.00;0.00;;;;;;;6.69;100.00;99670.72;6211813;23;20018;-77
2023/03/12 05:53:24;;;;;;;0.00;0.00;;;;;;;6.73;100.00;99669.13;6216775;23;20572;-77
2023/03/12 05:55:50;;;;;;;0.00;0.00;;;;;;;6.72;100.00;99664.75;6211850;23;20004;-77
2023/03/12 05:58:17;;;;;;;0.00;0.00;;;;;;;6.78;100.00;99682.72;6189319;23;20015;-77
2023/03/12 06:00:43;;;;;;;0.00;0.00;;;;;;;6.73;100.00;99685.44;6187003;23;20134;-77
2023/03/12 06:03:10;;;;;;;0.10;0.10;;;;;;;6.68;100.00;99693.53;6216526;23;20478;-77
2023/03/12 06:05:36;;;;;;;0.00;0.00;;;;;;;6.59;100.00;99687.72;6211932;23;20097;-77
2023/03/12 06:08:03;;;;;;;0.00;0.00;;;;;;;6.54;100.00;99678.72;6248203;23;20011;-77
2023/03/12 06:10:29;;;;;;;0.00;0.00;;;;;;;6.51;100.00;99673.78;6226552;23;19992;-77
2023/03/12 06:12:54;;;;;;;0.00;0.00;;;;;;;6.57;100.00;99689.91;6221475;23;20389;-77
2023/03/12 06:15:20;;;;;;;0.00;0.00;;;;;;;6.63;100.00;99704.34;6225060;23;20045;-76
2023/03/12 06:17:55;;;;;;;0.00;0.00;;;;;;;6.54;100.00;99689.56;6193337;23;20126;-78
2023/03/12 06:20:21;;;;;;;0.00;0.00;;;;;;;6.64;100.00;99700.53;6242823;23;20012;-79
2023/03/12 06:22:51;;;;;;;0.00;0.00;;;;;;;6.40;100.00;99662.84;6187707;23;20877;-78
2023/03/12 06:25:17;;;;;;;0.00;0.00;;;;;;;6.29;100.00;99666.53;6215247;23;20011;-77
2023/03/12 06:27:42;;;;;;;0.00;0.00;;;;;;;6.17;100.00;99655.00;6185855;23;20049;-78
2023/03/12 06:30:11;;;;;;;0.00;0.00;;;;;;;6.16;100.00;99677.78;6166196;23;20095;-77
2023/03/12 06:32:37;;;;;;;0.00;0.00;;;;;;;5.96;100.00;99668.34;6213567;23;20015;-79
2023/03/12 06:35:11;;;;;;;0.00;0.00;;;;;;;5.83;100.00;99663.28;6211946;23;20312;-78
2023/03/12 06:37:44;;;;;;;0.00;0.00;;;;;;;5.83;100.00;99674.16;6216186;23;20011;-78
2023/03/12 06:40:11;;;;;;;0.00;0.00;;;;;;;6.00;100.00;99701.22;6210986;23;20004;-79
2023/03/12 06:42:46;;;;;;;0.00;0.00;;;;;;;5.95;100.00;99688.38;6243577;23;20060;-79
2023/03/12 06:45:11;;;;;;;0.00;0.00;;;;;;;5.94;100.00;99675.88;6186538;23;20095;-79
2023/03/12 06:47:37;;;;;;;0.00;0.00;;;;;;;6.05;100.00;99680.41;6242335;23;20039;-79
2023/03/12 06:50:05;;;;;;;0.00;0.00;;;;;;;6.17;100.00;99674.00;6215731;23;20331;-76
2023/03/12 06:52:31;;;;;;;0.05;0.05;;;;;;;6.27;100.00;99684.97;6211778;23;20012;-79
2023/03/12 06:54:58;;;;;;;0.00;0.00;;;;;;;6.40;100.00;99673.69;6190407;23;20015;-77
2023/03/12 06:57:29;;;;;;;0.00;0.00;;;;;;;6.40;100.00;99665.56;6185485;23;20012;-78
2023/03/12 06:59:54;;;;;;;0.00;0.00;;;;;;;6.59;100.00;99654.31;6216553;23;20020;-79
2023/03/12 07:02:19;;;;;;;0.00;0.00;;;;;;;6.85;100.00;99673.53;6186784;23;20388;-78
2023/03/12 07:04:47;;;;;;;0.00;0.00;;;;;;;6.92;100.00;99657.84;6216810;23;20028;-77
2023/03/12 07:07:13;;;;;;;0.00;0.00;;;;;;;6.91;100.00;99650.78;6211220;23;20054;-78
2023/03/12 07:09:46;;;;;;;0.00;0.00;;;;;;;7.08;100.00;99665.03;6213975;23;20000;-77
2023/03/12 07:12:11;;;;;;;0.00;0.00;;;;;;;7.10;100.00;99679.19;6188655;23;20008;-77
2023/03/12 07:14:36;;;;;;;0.00;0.00;;;;;;;7.06;100.00;99675.34;6209058;23;20066;-77
2023/03/12 07:17:03;;;;;;;0.00;0.00;;;;;;;7.04;100.00;99669.34;6189175;23;20330;-77
2023/03/12 07:19:29;;;;;;;0.00;0.00;;;;;;;7.15;100.00;99684.66;6210854;23;20023;-77
2023/03/12 07:21:55;;;;;;;0.10;0.10;;;;;;;7.14;100.00;99677.59;6215849;23;20036;-78
2023/03/12 07:24:23;;;;;;;0.00;0.00;;;;;;;7.01;100.00;99672.59;6210584;23;19992;-78
2023/03/12 07:26:48;;;;;;;0.00;0.00;;;;;;;7.12;100.00;99695.22;6188560;23;20008;-78
2023/03/12 07:29:14;;;;;;;0.00;0.00;;;;;;;7.02;100.00;99685.09;6189677;23;20024;-78
2023/03/12 07:31:39;;;;;;;0.00;0.00;;;;;;;7.08;100.00;99700.38;6210332;23;20000;-77
2023/03/12 07:34:05;;;;;;;0.00;0.00;;;;;;;7.10;100.00;99706.38;6214526;23;20016;-78
2023/03/12 07:36:31;;;;;;;0.00;0.00;;;;;;;7.05;100.00;99687.28;6188411;23;20012;-77
2023/03/12 07:38:56;;;;;;;0.00;0.00;;;;;;;7.16;100.00;99694.44;6185751;23;20004;-79
2023/03/12 07:41:24;;;;;;;0.00;0.00;;;;;;;7.15;100.00;99690.09;6188377;23;20004;-78
2023/03/12 07:43:50;;;;;;;0.00;0.00;;;;;;;7.40;100.00;99715.00;6212444;23;20008;-78
2023/03/12 07:46:15;;;;;;;0.00;0.00;;;;;;;7.48;100.00;99699.00;6213991;23;20740;-78
2023/03/12 07:48:48;;;;;;;0.00;0.00;;;;;;;7.74;100.00;99720.91;6210358;23;19996;-77
2023/03/12 07:51:16;;;;;;;0.00;0.00;;;;;;;7.95;100.00;99712.84;6215150;23;20008;-78
2023/03/12 07:53:41;;;;;;;0.00;0.00;;;;;;;8.13;100.00;99720.56;6184464;23;20458;-78
2023/03/12 07:56:07;;;;;;;0.00;0.00;;;;;;;8.48;100.00;99724.47;6212845;23;20004;-78
2023/03/12 07:58:35;;;;;;;0.00;0.00;;;;;;;9.21;100.00;99728.06;6212562;23;20018;-78
2023/03/12 08:01:01;;;;;;;0.00;0.00;;;;;;;9.88;96.77;99715.09;6211258;23;20008;-79
2023/03/12 08:03:29;;;;;;;0.00;0.00;;;;;;;10.40;93.38;99736.78;6237991;23;20024;-79
2023/03/12 08:06:02;;;;;;;0.00;0.00;;;;;;;10.27;89.70;99736.25;6156383;23;20051;-78
2023/03/12 08:08:28;;;;;;;0.00;0.00;;;;;;;9.72;90.56;99721.72;6204075;23;20008;-79
2023/03/12 08:11:03;;;;;;;0.00;0.00;;;;;;;10.19;89.78;99742.31;6206197;23;20004;-79
2023/03/12 08:13:28;;;;;;;0.00;0.00;;;;;;;10.28;86.81;99740.63;6205194;23;20016;-79
2023/03/12 08:15:59;;;;;;;0.00;0.00;;;;;;;10.51;87.67;99764.84;6183679;23;20004;-79
2023/03/12 08:18:24;;;;;;;0.00;0.00;;;;;;;10.52;85.80;99753.66;6182628;23;20008;-79
2023/03/12 08:20:57;;;;;;;0.00;0.00;;;;;;;10.14;86.06;99747.78;6208168;23;20009;-80
2023/03/12 08:38:01;;;;;;;;;;;;;;;;;;;;;
2023/03/12 08:50:41;;;;;;;;;;;;;;;;;;;;;
2023/03/12 09:04:32;;;;;;;;;;;;;;;;;;;;;
2023/03/12 09:07:54;;;;;;;;;;;;;;;;;;;;;
2023/03/12 09:10:38;;;;;;;;;;;;;;;;;;;;;
2023/03/12 09:17:09;;;;;;;;;;;;;;;;;;;;;
2023/03/12 09:23:43;;;;;;;;;;;;;;;;;;;;;
2023/03/12 09:27:23;;;;;;;;;;;;;;;;;;;;;
2023/03/12 09:30:31;;;;;;;;;;;;;;;;;;;;;
2023/03/12 09:33:55;;;;;;;0.00;0.00;;;;;;;13.33;75.24;99736.25;5749387;24;20090;-78
2023/03/12 09:36:54;;;;;;;0.00;0.00;;;;;;;14.42;73.59;99705.53;5791035;24;20093;-76
2023/03/12 09:58:23;;;;;;;;;;;;;;;;;;;;;
2023/03/12 10:26:11;;;;;;;;;;;;;;;;;;;;;
2023/03/12 10:29:46;;;;;;;;;;;;;;;;;;;;;
2023/03/12 10:36:40;;;;;;;0.00;0.00;;;;;;;23.98;40.35;99665.09;6030899;23;20061;-79
2023/03/12 10:39:59;;;;;;;0.00;0.00;;;;;;;24.85;36.82;99647.50;6061627;23;20011;-79
2023/03/12 10:46:55;;;;;;;;;;;;;;;;;;;;;
2023/03/12 10:50:05;;;;;;;;;;;;;;;;;;;;;
2023/03/12 10:53:18;;;;;;;0.00;0.00;;;;;;;22.46;38.46;99647.53;6121199;23;20065;-78
2023/03/12 10:56:27;;;;;;;0.00;0.00;;;;;;;22.63;39.19;99663.00;6182008;23;20001;-79
2023/03/12 10:59:03;;;;;;;;;;;;;;;;;;;;;
2023/03/12 11:02:10;;;;;;;;;;;;;;;;;;;;;
2023/03/12 11:05:04;;;;;;;0.00;0.00;;;;;;;22.59;38.11;99662.13;6212559;23;20107;-78
2023/03/12 11:10:52;;;;;;;0.00;0.00;;;;;;;19.70;42.97;99654.38;6193327;23;20020;-80
2023/03/12 11:13:42;;;;;;;0.00;0.00;;;;;;;18.92;45.24;99642.19;6185849;23;20854;-79
2023/03/12 11:16:17;;;;;;;0.00;0.00;;;;;;;18.42;47.01;99652.22;6182668;23;20021;-78
2023/03/12 11:22:06;;;;;;;0.00;0.00;;;;;;;16.09;51.14;99638.47;6206758;23;20001;-79
2023/03/12 11:35:28;;;;;;;0.00;0.00;;;;;;;15.84;56.61;99645.53;6091363;23;20050;-77
2023/03/12 12:29:25;;;;;;;0.00;0.00;;;;;;;14.22;63.60;99601.50;6191405;23;20015;-75
2023/03/12 12:31:56;;;;;;;0.00;0.00;;;;;;;14.81;61.54;99590.47;6183967;23;20004;-75
2023/03/12 12:35:09;;;;;;;0.00;0.00;;;;;;;14.97;60.51;99594.44;6237641;23;20074;-75
2023/03/12 12:37:45;;;;;;;0.00;0.00;;;;;;;14.85;60.97;99569.44;6234989;23;20335;-76
2023/03/12 12:40:33;;;;;;;0.00;0.00;;;;;;;14.91;61.14;99583.88;6214723;23;20004;-76
2023/03/12 12:43:07;;;;;;;0.00;0.00;;;;;;;15.07;61.26;99570.50;6214830;23;20083;-75
2023/03/12 12:45:43;;;;;;;;;;;;;;;17.20;58.52;99565.28;6211961;23;20000;-74
2023/03/12 12:48:33;;;;;;;0.00;0.00;;;;;;;19.79;48.84;99592.44;6213525;22;20338;-76
2023/03/12 12:51:00;;;;;;;0.00;0.00;;;;;;;21.60;43.22;99562.91;6209774;23;20012;-77
2023/03/12 12:53:36;;;;;;;0.00;0.00;;;;;;;20.94;43.92;99576.34;6240834;23;20062;-77
2023/03/12 12:56:17;;;;;;;0.00;0.00;;;;;;;20.03;45.65;99570.22;6209742;23;20331;-76
2023/03/12 12:59:20;;;;;;;0.00;0.00;;;;;;;18.66;47.06;99562.94;6213004;23;20004;-76
2023/03/12 13:02:03;;;;;;;0.00;0.00;;;;;;;17.16;50.71;99553.25;6237500;23;20019;-77
2023/03/12 13:04:37;;;;;;;0.00;0.00;;;;;;;16.39;53.70;99556.66;6210132;23;20039;-74
2023/03/12 13:07:15;;;;;;;0.00;0.00;;;;;;;16.40;54.99;99563.00;6241821;23;20010;-74
2023/03/12 13:09:45;;;;;;;0.00;0.00;;;;;;;16.70;54.72;99568.63;6234770;23;20003;-74
2023/03/12 13:12:16;;;;;;;0.00;0.00;;;;;;;16.28;55.47;99557.31;6214114;23;20001;-76
2023/03/12 13:14:43;;;;;;;0.00;0.00;;;;;;;16.11;55.97;99561.72;6236478;23;20499;-77
2023/03/12 13:17:25;;;;;;;0.00;0.00;;;;;;;16.17;57.09;99552.13;6211778;23;20075;-78
2023/03/12 13:20:12;;;;;;;0.00;0.00;;;;;;;16.27;55.08;99533.66;6210198;23;20008;-77
2023/03/12 13:22:58;;;;;;;0.00;0.00;;;;;;;16.08;56.90;99548.59;6192432;23;20029;-76
2023/03/12 13:25:39;;;;;;;0.00;0.00;;;;;;;15.52;58.40;99554.66;6213002;23;20004;-74
2023/03/12 13:28:31;;;;;;;0.00;0.00;;;;;;;14.33;61.75;99539.63;6208066;23;20098;-77
2023/03/12 13:31:03;;;;;;;0.03;0.03;;;;;;;13.70;65.43;99522.94;6213969;23;20011;-76
2023/03/12 13:33:44;;;;;;;0.00;0.00;;;;;;;13.29;68.74;99548.50;6208680;23;20003;-74
2023/03/12 13:36:15;;;;;;;0.00;0.00;;;;;;;13.01;70.30;99543.00;6241915;23;20007;-78
2023/03/12 13:38:56;;;;;;;0.00;0.00;;;;;;;12.92;72.08;99528.34;6211056;23;20034;-79
2023/03/12 13:41:38;;;;;;;0.00;0.00;;;;;;;12.79;72.31;99518.19;6213519;23;20015;-80
2023/03/12 13:44:27;;;;;;;0.00;0.00;;;;;;;12.79;75.38;99523.66;6239750;23;20447;-79
2023/03/12 13:47:36;;;;;;;0.00;0.00;;;;;;;13.09;74.46;99525.81;6214807;23;20007;-76
2023/03/12 13:50:11;;;;;;;0.00;0.00;;;;;;;12.78;76.52;99533.03;6211023;23;20015;-76
2023/03/12 13:52:59;;;;;;;0.00;0.00;;;;;;;12.20;80.53;99519.44;6213156;23;20019;-76
2023/03/12 13:55:30;;;;;;;0.10;0.10;;;;;;;11.89;82.94;99541.00;6210395;23;20004;-76
2023/03/12 13:58:04;;;;;;;0.00;0.00;;;;;;;11.38;87.12;99508.88;6239865;23;20035;-76
2023/03/12 14:00:42;;;;;;;0.00;0.00;;;;;;;11.04;89.82;99498.84;6211212;23;20005;-82
2023/03/12 14:03:44;;;;;;;;;;;;;;;;;;;;;
2023/03/12 14:06:13;;;;;;;0.00;0.00;;;;;;;11.24;89.93;99487.66;6242493;23;20120;-82
2023/03/12 14:08:50;;;;;;;0.00;0.00;;;;;;;11.49;86.66;99483.78;6210783;23;20024;-79
2023/03/12 14:11:32;;;;;;;0.00;0.00;;;;;;;11.67;85.42;99482.16;6213876;23;20000;-83
2023/03/12 14:14:35;;;;;;;;;;;;;;;;;;;;;
2023/03/12 14:17:04;;;;;;;0.00;0.00;;;;;;;11.74;83.13;99461.78;6238982;23;20384;-81
2023/03/12 14:19:32;;;;;;;0.00;0.00;;;;;;;11.82;82.97;99477.56;6213872;23;20457;-80
2023/03/12 14:22:10;;;;;;;0.00;0.00;;;;;;;11.83;82.86;99465.50;6210892;23;20004;-74
2023/03/12 14:24:46;;;;;;;0.00;0.00;;;;;;;11.74;83.67;99481.78;6213398;23;20006;-74
2023/03/12 14:27:25;;;;;;;0.00;0.00;;;;;;;11.47;84.94;99469.56;6211412;23;20016;-75
2023/03/12 14:29:58;;;;;;;0.00;0.00;;;;;;;11.41;87.41;99469.94;6213758;23;20004;-75
2023/03/12 14:32:32;;;;;;;0.00;0.00;;;;;;;11.27;88.22;99473.41;6213225;23;20008;-76
2023/03/12 14:35:21;;;;;;;0.00;0.00;;;;;;;11.12;90.70;99470.88;6212893;23;20007;-79
2023/03/12 14:38:12;;;;;;;0.00;0.00;;;;;;;10.85;92.47;99471.44;6215684;23;20012;-78
2023/03/12 14:40:45;;;;;;;0.00;0.00;;;;;;;10.76;93.84;99463.06;6238255;23;20004;-78
2023/03/12 14:43:32;;;;;;;0.00;0.00;;;;;;;10.68;94.66;99466.47;6241418;23;20058;-80
2023/03/12 14:46:01;;;;;;;0.00;0.00;;;;;;;10.59;95.60;99456.16;6214706;23;20000;-79
2023/03/12 14:48:32;;;;;;;0.00;0.00;;;;;;;10.69;95.82;99471.66;6212547;23;20004;-78
2023/03/12 14:51:09;;;;;;;0.00;0.00;;;;;;;10.65;96.56;99444.06;6213628;23;20003;-79
2023/03/12 14:53:38;;;;;;;0.00;0.00;;;;;;;10.57;96.88;99452.91;6213949;23;20035;-78
2023/03/12 14:56:12;;;;;;;0.00;0.00;;;;;;;10.38;99.12;99438.31;6236486;23;20134;-74
2023/03/12 14:59:22;;;;;;;0.00;0.00;;;;;;;10.33;100.00;99427.44;6212638;23;20004;-74
2023/03/12 15:01:48;;;;;;;0.00;0.00;;;;;;;10.23;100.00;99418.22;6187612;23;20087;-75
2023/03/12 15:04:18;;;;;;;0.00;0.00;;;;;;;10.18;100.00;99422.91;6189159;23;20035;-73
2023/03/12 15:06:49;;;;;;;0.00;0.00;;;;;;;10.18;100.00;99426.47;6236777;23;19997;-76
2023/03/12 15:09:21;;;;;;;0.00;0.00;;;;;;;10.20;100.00;99420.72;6212553;23;20083;-76